createdAt,value
2023-03-23T16:00:21.373Z,100944.75
2023-03-23T16:02:58.770Z,100935.13
2023-03-23T16:05:30.110Z,100941.19
2023-03-23T16:08:00.850Z,100937.03
2023-03-23T16:10:31.759Z,100936.63
2023-03-23T16:13:02.987Z,100928.69
2023-03-23T16:15:33.744Z,100933.47
2023-03-23T16:18:07.159Z,100925.56
2023-03-23T16:20:38.462Z,100921.59
2023-03-23T16:23:12.060Z,100918.63
2023-03-23T16:25:42.888Z,100917.16
2023-03-23T16:28:15.018Z,100915.28
2023-03-23T16:30:46.374Z,100907.78
2023-03-23T16:33:17.345Z,100919.44
2023-03-23T16:35:50.393Z,100911.88
2023-03-23T16:38:21.306Z,100915.69
2023-03-23T16:40:54.125Z,100904.81
2023-03-23T16:43:25.065Z,100897.75
2023-03-23T16:45:58.784Z,100886.91
2023-03-23T16:48:30.067Z,100895.22
2023-03-23T16:51:00.987Z,100887.72
2023-03-23T16:53:32.018Z,100890.03
2023-03-23T16:56:03.474Z,100890.22
2023-03-23T16:58:34.302Z,100886.03
2023-03-23T17:01:06.903Z,100879.78
2023-03-23T17:03:37.478Z,100876.03
2023-03-23T17:06:08.562Z,100878.09
2023-03-23T17:08:39.332Z,100876.25
2023-03-23T17:11:12.374Z,100876.44
2023-03-23T17:13:43.096Z,100875.16
2023-03-23T17:16:24.369Z,100871.41
2023-03-23T17:18:55.245Z,100878.09
2023-03-23T17:21:26.806Z,100872.22
2023-03-23T17:23:58.224Z,100869.50
2023-03-23T17:26:28.898Z,100874.28
2023-03-23T17:28:59.549Z,100870.94
2023-03-23T17:31:30.674Z,100870.94
2023-03-23T17:34:01.812Z,100865.94
2023-03-23T17:36:32.687Z,100855.09
2023-03-23T17:39:04.196Z,100860.09
2023-03-23T17:41:35.929Z,100854.69
2023-03-23T17:44:10.069Z,100850.50
2023-03-23T17:46:41.856Z,100850.88
2023-03-23T17:49:12.570Z,100847.16
2023-03-23T17:51:44.650Z,100845.03
2023-03-23T17:54:17.148Z,100842.16
2023-03-23T17:56:50.941Z,100846.91
2023-03-23T17:59:22.822Z,100845.25
2023-03-23T18:01:54.721Z,100847.31
2023-03-23T18:04:28.105Z,100854.78
2023-03-23T18:06:59.817Z,100838.75
2023-03-23T18:09:31.672Z,100847.47
2023-03-23T18:12:03.148Z,100836.00
2023-03-23T18:14:33.979Z,100837.03
2023-03-23T18:17:04.708Z,100838.91
2023-03-23T18:19:35.343Z,100840.31
2023-03-23T18:22:06.372Z,100843.25
2023-03-23T18:24:37.255Z,100845.31
2023-03-23T18:27:08.278Z,100848.84
2023-03-23T18:29:38.939Z,100840.31
2023-03-23T18:32:10.785Z,100846.75
2023-03-23T18:34:51.019Z,100847.56
2023-03-23T18:37:22.301Z,100844.44
2023-03-23T18:39:54.633Z,100851.50
2023-03-23T18:42:25.045Z,100853.97
2023-03-23T18:44:56.556Z,100852.94
2023-03-23T18:47:28.223Z,100841.66
2023-03-23T18:50:00.512Z,100846.91
2023-03-23T18:52:32.422Z,100850.63
2023-03-23T18:55:03.775Z,100850.00
2023-03-23T18:57:34.351Z,100844.59
2023-03-23T19:00:05.742Z,100836.88
2023-03-23T19:02:37.098Z,100841.41
2023-03-23T19:05:09.833Z,100851.81
2023-03-23T19:07:40.877Z,100846.78
2023-03-23T19:10:11.925Z,100855.94
2023-03-23T19:12:42.844Z,100845.13
2023-03-23T19:15:22.478Z,100846.16
2023-03-23T19:17:56.929Z,100845.47
2023-03-23T19:20:57.196Z,100845.47
2023-03-23T19:23:19.941Z,100841.50
2023-03-23T19:25:51.416Z,100845.88
2023-03-23T19:29:05.462Z,100845.88
2023-03-23T19:31:16.508Z,100849.78
2023-03-23T19:33:47.539Z,100843.94
2023-03-23T19:36:18.830Z,100849.34
2023-03-23T19:38:49.692Z,100850.59
2023-03-23T19:41:20.723Z,100854.34
2023-03-23T19:43:51.818Z,100845.13
2023-03-23T19:46:22.540Z,100859.09
2023-03-23T19:48:53.475Z,100859.91
2023-03-23T19:51:26.835Z,100859.66
2023-03-23T19:53:58.960Z,100861.56
2023-03-23T19:56:33.629Z,100861.72
2023-03-23T19:59:05.204Z,100862.38
2023-03-23T20:01:36.036Z,100856.97
2023-03-23T20:04:07.323Z,100857.16
2023-03-23T20:06:38.490Z,100860.69
2023-03-23T20:09:10.277Z,100862.75
2023-03-23T20:11:41.739Z,100849.25
2023-03-23T20:14:12.607Z,100858.22
2023-03-23T20:16:43.812Z,100859.41
2023-03-23T20:19:14.364Z,100862.31
2023-03-23T20:21:45.883Z,100856.91
2023-03-23T20:24:17.468Z,100864.19
2023-03-23T20:26:48.462Z,100868.75
2023-03-23T20:29:19.332Z,100861.84
2023-03-23T20:31:53.862Z,100868.28
2023-03-23T20:34:31.986Z,100871.84
2023-03-23T20:37:03.703Z,100866.44
2023-03-23T20:39:35.340Z,100865.59
2023-03-23T20:42:07.466Z,100870.34
2023-03-23T20:44:40.290Z,100874.72
2023-03-23T20:47:13.173Z,100878.84
2023-03-23T20:49:44.025Z,100883.22
2023-03-23T20:52:28.061Z,100879.88
2023-03-23T20:54:59.084Z,100875.72
2023-03-23T20:57:29.736Z,100880.72
2023-03-23T21:00:00.413Z,100894.81
2023-03-23T21:02:31.680Z,100886.69
2023-03-23T21:05:05.234Z,100898.53
2023-03-23T21:07:37.048Z,100892.09
2023-03-23T21:10:08.326Z,100895.19
2023-03-23T21:12:41.678Z,100901.25
2023-03-23T21:15:12.553Z,100904.31
2023-03-23T21:17:43.725Z,100904.31
2023-03-23T21:20:15.395Z,100907.22
2023-03-23T21:22:46.268Z,100909.28
2023-03-23T21:25:17.183Z,100909.47
2023-03-23T21:27:48.522Z,100906.09
2023-03-23T21:30:22.824Z,100909.81
2023-03-23T21:32:53.471Z,100912.91
2023-03-23T21:35:25.129Z,100916.63
2023-03-23T21:37:55.746Z,100919.53
2023-03-23T21:40:28.215Z,100927.16
2023-03-23T21:42:59.462Z,100927.16
2023-03-23T21:45:31.372Z,100937.97
2023-03-23T21:48:05.631Z,100941.69
2023-03-23T21:50:40.294Z,100941.06
2023-03-23T21:53:13.689Z,100937.31
2023-03-23T21:55:45.873Z,100950.19
2023-03-23T21:58:16.484Z,100950.38
2023-03-23T22:00:50.877Z,100952.22
2023-03-23T22:03:25.963Z,100958.66
2023-03-23T22:05:59.096Z,100955.31
2023-03-23T22:08:33.973Z,100960.72
2023-03-23T22:11:07.799Z,100970.22
2023-03-23T22:13:40.329Z,100972.28
2023-03-23T22:16:18.859Z,100980.19
2023-03-23T22:18:52.215Z,100983.09
2023-03-23T22:21:24.070Z,100985.16
2023-03-23T22:23:56.893Z,100993.06
2023-03-23T22:26:28.789Z,100994.28
2023-03-23T22:29:00.612Z,101012.53
2023-03-23T22:31:35.134Z,101003.78
2023-03-23T22:34:07.371Z,101014.59
2023-03-23T22:36:40.017Z,101022.03
2023-03-23T22:39:10.973Z,101016.63
2023-03-23T22:41:43.329Z,101025.28
2023-03-23T22:44:19.116Z,101029.47
2023-03-23T22:46:50.923Z,101032.53
2023-03-23T22:49:21.914Z,101044.00
2023-03-23T22:51:52.585Z,101043.63
2023-03-23T22:54:24.477Z,101044.81
2023-03-23T22:56:55.454Z,101047.34
2023-03-23T22:59:26.077Z,101052.75
2023-03-23T23:01:57.102Z,101051.75
2023-03-23T23:04:28.322Z,101049.50
2023-03-23T23:07:11.950Z,101054.06
2023-03-23T23:09:44.749Z,101068.22
2023-03-23T23:12:16.669Z,101060.78
2023-03-23T23:14:47.821Z,101053.69
2023-03-23T23:17:18.763Z,101066.56
2023-03-23T23:19:49.437Z,101070.28
2023-03-23T23:22:20.966Z,101071.94
2023-03-23T23:24:51.847Z,101071.59
2023-03-23T23:27:22.980Z,101067.44
2023-03-23T23:29:54.040Z,101077.25
2023-03-23T23:32:25.110Z,101078.66
2023-03-23T23:34:56.136Z,101080.34
2023-03-23T23:37:27.243Z,101079.94
2023-03-23T23:39:57.954Z,101097.28
2023-03-23T23:42:32.102Z,101094.59
2023-03-23T23:45:04.113Z,101100.63
2023-03-23T23:47:34.875Z,101098.75
2023-03-23T23:50:08.335Z,101102.13
2023-03-23T23:52:41.186Z,101107.16
2023-03-23T23:55:16.386Z,101102.69
2023-03-23T23:57:48.795Z,101113.84
